Alvaton, KY

7:12 AM CST on February 27, 2015 (GMT -0600)
Bowling Green-Warren County Regional | Change Station
CLOSE
Current Station
Airport
Location: Bowling Green,
Elevation: 548 ft
Nearby Weather Stations

Elev 548 ft 36.96 °N, 86.42 °W | Updated 19 minutes ago

Overcast
Overcast
19 °F
Feels Like 10 °F
N
7
Wind Variable Wind from NE

Today
High -- | Low -- °F
--% Chance of Precip.
Yesterday
High -- | Low -- °F
Precip. -- in
6:19 AM 5:37 PM
Waxing Gibbous, 68% visible
Pressure 30.57 in
Visibility 10.0 miles
Clouds Overcast 3900 ft
Windchill 10 °F
Dew Point 9 °F
Humidity 65%
Rainfall 0.00 in
Snow Depth Not available.
UV 0 out of 12
Pollen .90 out of 12
Air Quality Not available.
Flu Activity Not available.
METAR KBWG 271253Z AUTO 05006KT 10SM OVC039 M07/M13 A3055 RMK AO2 SLP351 T10721128

More Conditions Fewer Conditions

Pressure 30.57 in
Visibility 10.0 miles
Clouds Overcast 3900 ft
Windchill 10 °F
Dew Point 9 °F
Humidity 65%
Rainfall 0.00 in
Snow Depth Not available.
UV 0 out of 12
Pollen .90 out of 12
Air Quality Not available.
Flu Activity Not available.
METAR KBWG 271253Z AUTO 05006KT 10SM OVC039 M07/M13 A3055 RMK AO2 SLP351 T10721128

More Conditions Fewer Conditions

10-Day Weather Forecast

Almanac

Astronomy

Feb. 27, 2015 Rise Set
Actual Time
Civil Twilight
Nautical Twilight
Astronomical Twilight
Moon
Length of Visible Light
Length of Day
Tomorrow will be .
, % of the Moon is Illuminated

Today's Extremes

State Highs State Lows

Community

WunderPhotos

Upload Photos

1,800,668 photos uploaded!

WunderBlogs® & News

Nearby

Air Quality

  Air Quality AQ Index Pollutant
Not available.

Snow Depth

Station Depth Elevation

Earthquake Activity

City Distance Mag. Time & Date
Minimum magnitude displayed is 2.5.

Coastal Water Temperatures

Place Temperature

Nearby Weather Stations